Terminal Aerodrome Forecast
Issued by NWS

Home | Current Version | Previous Version | Text Only | Print | Product List | Glossary On
Versions: 1 2 3 4 5 6 7 8 9 10 11 12 13 14 15 16 17 18 19 20 21 22 23 24 25 26 27 28 29 30 31 32 33 34 35 36 37 38
000
FTUS46 KSGX 190607 AAA
TAFCRQ
TAF AMD
KCRQ 190607Z 1906/2006 VRB04KT P6SM FEW011
     FM191000 VRB03KT P6SM BKN009
     FM191700 25009KT P6SM SCT012
     FM200200 VRB04KT P6SM FEW013
     FM200500 VRB03KT P6SM BKN011=

USA.gov is the U.S. government's official web portal to all federal, state and local government web resources and services.